createdAt,value
2023-02-03T00:01:03.956Z,3.22
2023-02-03T00:06:05.487Z,3.28
2023-02-03T00:11:08.037Z,3.18
2023-02-03T00:16:09.073Z,3.36
2023-02-03T00:21:09.912Z,3.40
2023-02-03T00:26:13.947Z,3.49
2023-02-03T00:31:18.000Z,3.49
2023-02-03T00:36:20.176Z,3.34
2023-02-03T00:41:22.982Z,3.33
2023-02-03T00:46:25.339Z,3.34
2023-02-03T00:51:25.986Z,3.30
2023-02-03T00:56:29.916Z,3.23
2023-02-03T01:01:30.683Z,3.18
2023-02-03T01:06:31.423Z,3.23
2023-02-03T01:11:33.754Z,3.09
2023-02-03T01:16:38.160Z,3.18
2023-02-03T01:21:38.881Z,3.13
2023-02-03T01:26:40.870Z,3.06
2023-02-03T01:31:43.347Z,3.09
2023-02-03T01:36:44.315Z,3.00
2023-02-03T01:41:46.399Z,2.79
2023-02-03T01:46:50.604Z,2.73
2023-02-03T01:51:53.473Z,2.77
2023-02-03T01:57:00.001Z,2.83
2023-02-03T02:02:02.973Z,2.71
2023-02-03T02:07:04.291Z,2.75
2023-02-03T02:12:06.653Z,2.81
2023-02-03T02:17:19.872Z,2.80
2023-02-03T02:22:26.312Z,2.87
2023-02-03T02:27:46.137Z,2.79
2023-02-03T02:33:01.169Z,2.80
2023-02-03T02:38:07.893Z,2.69
2023-02-03T02:43:13.979Z,2.75
2023-02-03T02:48:24.166Z,2.72
2023-02-03T02:53:27.723Z,2.74
2023-02-03T02:58:33.086Z,2.76
2023-02-03T03:03:35.117Z,2.88
2023-02-03T03:08:40.027Z,2.86
2023-02-03T03:13:49.179Z,2.89
2023-02-03T03:18:57.221Z,2.86
2023-02-03T03:24:02.806Z,2.92
2023-02-03T03:29:11.756Z,2.94
2023-02-03T03:34:15.540Z,2.98
2023-02-03T03:39:22.875Z,3.04
2023-02-03T03:44:28.712Z,3.04
2023-02-03T03:49:35.078Z,3.10
2023-02-03T03:54:39.302Z,3.15
2023-02-03T03:59:42.510Z,3.10
2023-02-03T04:04:47.363Z,3.19
2023-02-03T04:09:49.465Z,3.34
2023-02-03T04:14:50.207Z,3.34
2023-02-03T04:19:52.205Z,3.51
2023-02-03T04:24:52.868Z,4.15
2023-02-03T04:29:53.582Z,4.74
2023-02-03T04:34:55.551Z,5.11
2023-02-03T04:39:56.463Z,5.23
2023-02-03T04:44:57.120Z,5.49
2023-02-03T04:49:59.090Z,5.55
2023-02-03T04:54:59.824Z,5.65
2023-02-03T05:00:00.491Z,5.74
2023-02-03T05:05:02.503Z,5.68
2023-02-03T05:10:03.188Z,5.71
2023-02-03T05:15:03.874Z,5.77
2023-02-03T05:20:06.605Z,5.82
2023-02-03T05:25:08.249Z,5.84
2023-02-03T05:30:10.923Z,5.90
2023-02-03T05:35:12.914Z,5.92
2023-02-03T05:40:32.232Z,5.94
2023-02-03T05:45:33.253Z,5.96
2023-02-03T05:50:38.483Z,6.03
2023-02-03T05:55:42.376Z,6.16
2023-02-03T06:00:43.030Z,6.22
2023-02-03T06:05:45.062Z,6.24
2023-02-03T06:10:45.719Z,6.26
2023-02-03T06:15:46.354Z,6.29
2023-02-03T06:20:48.680Z,6.28
2023-02-03T06:25:53.175Z,6.27
2023-02-03T06:30:54.038Z,6.32
2023-02-03T06:35:56.320Z,6.37
2023-02-03T06:40:56.955Z,6.38
2023-02-03T06:45:57.737Z,6.50
2023-02-03T06:50:59.780Z,6.53
2023-02-03T06:56:02.207Z,6.43
2023-02-03T07:01:07.208Z,6.29
2023-02-03T07:06:09.496Z,6.29
2023-02-03T07:11:12.086Z,6.24
2023-02-03T07:16:12.959Z,6.28
2023-02-03T07:21:15.765Z,6.43
2023-02-03T07:26:17.636Z,6.45
2023-02-03T07:31:18.478Z,6.61
2023-02-03T07:36:20.589Z,6.70
2023-02-03T07:41:21.284Z,6.82
2023-02-03T07:46:22.019Z,6.77
2023-02-03T07:51:24.084Z,6.68
2023-02-03T07:56:24.847Z,6.59
2023-02-03T08:01:25.927Z,6.42
2023-02-03T08:06:27.913Z,6.28
2023-02-03T08:11:28.547Z,6.29
2023-02-03T08:16:29.299Z,6.26
2023-02-03T08:21:32.037Z,6.16
2023-02-03T08:26:32.771Z,6.33
2023-02-03T08:31:33.559Z,6.37
2023-02-03T08:36:37.078Z,6.36
2023-02-03T08:41:37.737Z,6.42
2023-02-03T08:46:43.482Z,6.43
2023-02-03T08:51:46.825Z,6.42
2023-02-03T08:56:47.779Z,6.39
2023-02-03T09:01:48.615Z,6.37
2023-02-03T09:06:50.645Z,6.34
2023-02-03T09:11:51.289Z,6.37
2023-02-03T09:16:51.974Z,6.32
2023-02-03T09:21:54.014Z,6.32
2023-02-03T09:26:55.183Z,6.29
2023-02-03T09:31:55.974Z,6.34
2023-02-03T09:36:57.976Z,6.37
2023-02-03T09:42:16.769Z,6.48
2023-02-03T09:47:21.598Z,6.37
2023-02-03T09:52:26.373Z,6.34
2023-02-03T09:57:28.800Z,6.30
2023-02-03T10:02:45.095Z,6.31
2023-02-03T10:07:57.521Z,6.35
2023-02-03T10:13:13.753Z,6.46
2023-02-03T10:18:20.527Z,6.49
2023-02-03T10:23:29.489Z,6.49
2023-02-03T10:28:33.819Z,6.48
2023-02-03T10:33:34.523Z,6.46
2023-02-03T10:38:48.569Z,6.43
2023-02-03T10:43:52.664Z,6.47
2023-02-03T10:48:53.431Z,6.48
2023-02-03T10:53:55.484Z,6.49
2023-02-03T10:58:58.631Z,6.57
2023-02-03T11:04:01.917Z,6.61
2023-02-03T11:09:22.645Z,6.74
2023-02-03T11:14:23.300Z,6.87
2023-02-03T11:19:24.039Z,7.00
2023-02-03T11:24:29.414Z,7.04
2023-02-03T11:29:32.253Z,6.89
2023-02-03T11:34:37.918Z,6.84
2023-02-03T11:39:39.961Z,6.79
2023-02-03T11:44:40.601Z,6.82
2023-02-03T11:50:10.053Z,6.85
2023-02-03T11:55:22.342Z,6.83
2023-02-03T12:00:33.592Z,6.92
2023-02-03T12:05:45.689Z,6.92
2023-02-03T12:11:01.016Z,7.09
2023-02-03T12:16:15.330Z,7.18
2023-02-03T12:21:34.870Z,7.19
2023-02-03T12:26:44.001Z,7.20
2023-02-03T12:31:49.852Z,7.30
2023-02-03T12:36:57.937Z,7.44
2023-02-03T12:42:04.285Z,7.48
2023-02-03T12:47:13.615Z,7.65
2023-02-03T12:52:23.565Z,7.73
2023-02-03T12:57:32.886Z,7.83
2023-02-03T13:02:43.598Z,7.75
2023-02-03T13:07:50.395Z,7.59
2023-02-03T13:12:56.961Z,7.29
2023-02-03T13:18:02.404Z,6.96
2023-02-03T13:23:07.064Z,6.18
2023-02-03T13:28:19.986Z,6.03
2023-02-03T13:33:45.604Z,6.14
2023-02-03T13:39:06.023Z,6.38
2023-02-03T13:44:15.208Z,6.44
2023-02-03T13:49:23.787Z,6.60
2023-02-03T13:54:29.484Z,6.80
2023-02-03T13:59:42.356Z,6.83
2023-02-03T14:04:54.380Z,6.88
2023-02-03T14:10:21.290Z,6.90
2023-02-03T14:15:31.307Z,6.93
2023-02-03T14:20:52.799Z,6.81
2023-02-03T14:25:56.848Z,6.85
2023-02-03T14:31:12.620Z,6.88
2023-02-03T14:36:31.745Z,6.87
2023-02-03T14:41:46.474Z,6.86
2023-02-03T14:47:05.370Z,6.89
2023-02-03T14:52:19.094Z,6.90
2023-02-03T14:57:36.694Z,6.83
2023-02-03T15:03:19.999Z,6.80
2023-02-03T15:08:42.903Z,6.75
2023-02-03T15:13:43.591Z,6.75
2023-02-03T15:18:45.694Z,6.72
2023-02-03T15:23:49.377Z,6.60
2023-02-03T15:28:57.161Z,6.57
2023-02-03T15:34:04.579Z,6.60
2023-02-03T15:39:13.487Z,6.62
2023-02-03T15:44:29.261Z,6.59
2023-02-03T15:49:39.005Z,6.61
2023-02-03T15:54:46.017Z,6.66
2023-02-03T15:59:54.514Z,6.73
2023-02-03T16:04:57.095Z,6.77
2023-02-03T16:09:58.897Z,6.77
2023-02-03T16:15:01.935Z,6.82
2023-02-03T16:20:28.135Z,6.85
2023-02-03T16:25:31.331Z,6.91
2023-02-03T16:30:49.785Z,6.92
2023-02-03T16:36:09.291Z,6.95
2023-02-03T16:41:35.122Z,6.94
2023-02-03T16:46:53.533Z,7.03
2023-02-03T16:51:55.624Z,7.03
2023-02-03T16:56:58.477Z,7.04
2023-02-03T17:01:59.505Z,6.98
2023-02-03T17:07:02.949Z,7.02
2023-02-03T17:12:04.157Z,7.02
2023-02-03T17:17:04.832Z,7.01
2023-02-03T17:22:07.665Z,7.02
2023-02-03T17:27:08.384Z,7.03
2023-02-03T17:32:09.247Z,7.07
2023-02-03T17:37:11.429Z,7.09
2023-02-03T17:58:04.590Z,7.09
2023-02-03T18:03:05.252Z,7.15
2023-02-03T18:08:16.089Z,7.12
2023-02-03T18:13:18.289Z,7.16
2023-02-03T18:18:20.774Z,7.16
2023-02-03T18:23:23.039Z,7.13
2023-02-03T18:28:24.093Z,7.09
2023-02-03T18:33:24.824Z,7.06
2023-02-03T18:38:27.044Z,7.00
2023-02-03T18:43:27.745Z,6.99
2023-02-03T18:48:28.660Z,6.99
2023-02-03T18:53:32.366Z,6.98
2023-02-03T18:58:33.030Z,6.93
2023-02-03T19:03:34.360Z,6.91
2023-02-03T19:08:36.418Z,6.85
2023-02-03T19:13:37.129Z,6.53
2023-02-03T19:18:37.823Z,6.51
2023-02-03T19:23:39.932Z,6.63
2023-02-03T19:28:41.480Z,6.66
2023-02-03T19:33:42.394Z,6.69
2023-02-03T19:38:44.563Z,6.68
2023-02-03T19:43:47.519Z,6.70
2023-02-03T19:48:48.972Z,6.66
2023-02-03T19:53:52.482Z,6.46
2023-02-03T19:58:54.401Z,6.30
2023-02-03T20:03:55.112Z,5.98
2023-02-03T20:08:57.203Z,5.90
2023-02-03T20:13:57.979Z,5.89
2023-02-03T20:19:00.606Z,5.86
2023-02-03T20:24:02.636Z,5.90
2023-02-03T20:29:03.374Z,5.92
2023-02-03T20:34:05.074Z,5.85
2023-02-03T20:39:07.177Z,5.78
2023-02-03T20:44:11.039Z,5.62
2023-02-03T20:49:12.714Z,5.41
2023-02-03T20:54:18.238Z,5.25
2023-02-03T20:59:20.470Z,5.22
2023-02-03T21:04:38.956Z,5.26
2023-02-03T21:09:41.039Z,5.31
2023-02-03T21:14:43.523Z,5.24
2023-02-03T21:19:44.259Z,5.11
2023-02-03T21:24:51.095Z,5.03
2023-02-03T21:29:55.737Z,4.95
2023-02-03T21:34:56.541Z,4.99
2023-02-03T21:39:58.566Z,5.01
2023-02-03T21:44:59.274Z,5.08
2023-02-03T21:50:01.833Z,5.12
2023-02-03T21:55:13.554Z,5.08
2023-02-03T22:00:39.224Z,5.07
2023-02-03T22:05:39.953Z,5.09
2023-02-03T22:10:41.974Z,5.12
2023-02-03T22:15:43.320Z,5.07
2023-02-03T22:20:43.953Z,4.95
2023-02-03T22:25:46.135Z,4.86
2023-02-03T22:30:47.124Z,4.77
2023-02-03T22:35:47.862Z,4.70
2023-02-03T22:40:49.911Z,4.66
2023-02-03T22:45:50.682Z,4.65
2023-02-03T22:50:51.387Z,4.64
2023-02-03T22:55:53.391Z,4.65
2023-02-03T23:00:54.098Z,4.62
2023-02-03T23:05:56.447Z,4.60
2023-02-03T23:10:58.783Z,4.57
2023-02-03T23:15:59.519Z,4.56
2023-02-03T23:21:00.215Z,4.58
2023-02-03T23:26:02.193Z,4.54
2023-02-03T23:31:03.840Z,4.57
2023-02-03T23:36:04.839Z,4.54
2023-02-03T23:41:06.855Z,4.58
2023-02-03T23:46:07.791Z,4.57
2023-02-03T23:51:08.535Z,4.50
2023-02-03T23:56:10.667Z,4.50
